Sanctuary — WDF6190 — position and weather

sailwx.info

Track history (hours):
 
Tides and Currents Weather Stations Pressure Air Temp Water Temp Dewpoint Dewpoint Depression Visibility Wind Speed Wind Dir Waves Ship Positions

Sanctuary

Owner: Dutton, Stephen G, LEWISTON, CA. More information available from US FCC via Universal Licensing System and Coast Guard Vessel Documentation Center.

Last reported at 2015-Aug-27 20:33 UTC. Time now 2015-Aug-30 07:51 UTC.
Position N 48°33' W 122°55'.

Length 15 m.

Type: Pleasure craft. MMSI: 367470740.

Date/timePositionNaut miles runAvg speedWind from/ knotsBaromVisibWave heightAir tempDewpointWater temp
2015-Aug-27 20:33N 48°33' W 122°55'2 1.0
2015-Aug-27 18:15N 48°31' W 122°55'0 0.0
2015-Aug-27 07:03N 48°31' W 122°55'0 0.0
2015-Aug-27 06:27N 48°31' W 122°55'0 0.0
2015-Aug-27 03:21N 48°31' W 122°55'0 0.0
2015-Aug-27 02:33N 48°31' W 122°55'0 0.0
2015-Aug-27 01:33N 48°31' W 122°55'0 0.0
2015-Aug-27 00:27N 48°31' W 122°55'0 0.0
2015-Aug-26 23:33N 48°31' W 122°55'0 0.0
2015-Aug-26 17:33N 48°31' W 122°55'0 0.0
2015-Aug-26 10:12N 48°31' W 122°55'0 0.0
2015-Aug-26 09:18N 48°31' W 122°55'0 0.0
2015-Aug-26 08:30N 48°31' W 122°55'0 0.0
2015-Aug-26 07:30N 48°31' W 122°55'0 0.0
2015-Aug-26 03:30N 48°31' W 122°55'0 0.0
2015-Aug-25 21:33N 48°31' W 122°55'  
2015-Aug-20 17:29N 48°45' W 123°37'1 0.1
2015-Aug-20 01:11N 48°46' W 123°36'6 8.8
2015-Aug-20 00:32N 48°41' W 123°31'3 0.1
2015-Aug-18 23:11N 48°38' W 123°29'4 6.6
2015-Aug-18 22:31N 48°42' W 123°26'2 2.0
2015-Aug-18 21:33N 48°40' W 123°24'  
Track history (hours):
 
Tides and Currents Weather Stations Pressure Air Temp Water Temp Dewpoint Dewpoint Depression Visibility Wind Speed Wind Dir Waves Ship Positions

Sanctuary

Owner: Dutton, Stephen G, LEWISTON, CA. More information available from US FCC via Universal Licensing System and Coast Guard Vessel Documentation Center.

Last reported at 2015-Aug-27 20:33 UTC. Time now 2015-Aug-30 07:51 UTC.
Position N 48°33' W 122°55'.

Length 15 m.

Type: Pleasure craft. MMSI: 367470740.

Date/timePositionNaut miles runAvg speedWind from/ knotsBaromVisibWave heightAir tempDewpointWater temp
2015-Aug-27 20:33N 48°33' W 122°55'2 1.0
2015-Aug-27 18:15N 48°31' W 122°55'0 0.0
2015-Aug-27 07:03N 48°31' W 122°55'0 0.0
2015-Aug-27 06:27N 48°31' W 122°55'0 0.0
2015-Aug-27 03:21N 48°31' W 122°55'0 0.0
2015-Aug-27 02:33N 48°31' W 122°55'0 0.0
2015-Aug-27 01:33N 48°31' W 122°55'0 0.0
2015-Aug-27 00:27N 48°31' W 122°55'0 0.0
2015-Aug-26 23:33N 48°31' W 122°55'0 0.0
2015-Aug-26 17:33N 48°31' W 122°55'0 0.0
2015-Aug-26 10:12N 48°31' W 122°55'0 0.0
2015-Aug-26 09:18N 48°31' W 122°55'0 0.0
2015-Aug-26 08:30N 48°31' W 122°55'0 0.0
2015-Aug-26 07:30N 48°31' W 122°55'0 0.0
2015-Aug-26 03:30N 48°31' W 122°55'0 0.0
2015-Aug-25 21:33N 48°31' W 122°55'  
2015-Aug-20 17:29N 48°45' W 123°37'1 0.1
2015-Aug-20 01:11N 48°46' W 123°36'6 8.8
2015-Aug-20 00:32N 48°41' W 123°31'3 0.1
2015-Aug-18 23:11N 48°38' W 123°29'4 6.6
2015-Aug-18 22:31N 48°42' W 123°26'2 2.0
2015-Aug-18 21:33N 48°40' W 123°24'  

Dump ship's entire track history